Time;durP1;ratioP1;P1;durP2;ratioP2;P2;SDS_P1;SDS_P2;PMS_P1;PMS_P2;Temp;Humidity;BMP_temperature;BMP_pressure;BME280_temperature;BME280_humidity;BME280_pressure;Samples;Min_cycle;Max_cycle;Signal;HPM_P1;HPM_P2
2021/08/04 00:00:29;;;;;;;;;;;;;;;18.11;73.07;99096.80;1892733;76;20101;-62
2021/08/04 00:03:03;;;;;;;;;;;;;;;18.07;73.32;99093.84;1873488;76;20216;-62
2021/08/04 00:05:38;;;;;;;;;;;;;;;18.02;73.52;99099.59;1873454;76;20097;-61
2021/08/04 00:08:12;;;;;;;;;;;;;;;17.96;73.51;99105.34;1873488;76;20458;-61
2021/08/04 00:10:47;;;;;;;;;;;;;;;17.93;73.45;99111.89;1892810;76;20203;-61
2021/08/04 00:13:21;;;;;;;;;;;;;;;17.90;73.61;99104.12;1892823;76;20208;-62
2021/08/04 00:15:56;;;;;;;;;;;;;;;17.88;73.91;99110.25;1873531;76;20339;-61
2021/08/04 00:18:31;;;;;;;;;;;;;;;17.83;74.09;99106.41;1873366;76;20347;-60
2021/08/04 00:21:06;;;;;;;;;;;;;;;17.81;74.47;99112.12;1873484;76;20090;-63
2021/08/04 00:23:40;;;;;;;;;;;;;;;17.75;74.46;99110.86;1873447;76;20212;-60
2021/08/04 00:26:15;;;;;;;;;;;;;;;17.73;74.47;99116.54;1873367;76;20097;-62
2021/08/04 00:28:55;;;;;;;;;;;;;;;17.70;74.65;99117.89;1892818;76;20100;-62
2021/08/04 00:42:20;;;;;;;;;;;;;;;17.53;76.07;99120.78;1817771;78;20136;-63
2021/08/04 00:56:07;;;;;;;;;;;;;;;17.57;77.15;99127.22;1834720;77;20135;-63
2021/08/04 01:12:02;;;;;;;;;;;;;;;17.37;77.73;99125.34;1701002;83;20404;-62
2021/08/04 01:25:21;;;;;;;;;;;;;;;17.16;78.13;99117.81;1850563;77;20099;-62
2021/08/04 01:28:27;;;;;;;;;;;;;;;17.11;77.78;99116.56;1873178;76;20102;-62
2021/08/04 01:31:26;;;;;;;;;;;;;;;17.10;77.71;99122.67;1949620;73;20097;-61
2021/08/04 01:34:21;;;;;;;;;;;;;;;17.07;77.77;99118.36;1873164;76;20102;-61
2021/08/04 01:37:22;;;;;;;;;;;;;;;17.05;77.67;99120.12;1869706;76;20213;-59
2021/08/04 01:40:54;;;;;;;;;;;;;;;17.01;78.53;99118.42;1895119;76;20239;-61
2021/08/04 01:43:53;;;;;;;;;;;;;;;16.96;78.72;99116.31;1873335;76;20101;-60
2021/08/04 01:46:44;;;;;;;;;;;;;;;16.91;78.65;99115.51;1837802;77;20218;-61
2021/08/04 01:49:38;;;;;;;;;;;;;;;16.86;78.44;99112.95;1873423;76;20097;-61
2021/08/04 01:52:33;;;;;;;;;;;;;;;16.84;78.85;99112.14;1873199;76;20140;-62
2021/08/04 01:56:24;;;;;;;;;;;;;;;16.81;78.97;99113.45;1849118;78;20213;-63
2021/08/04 01:59:23;;;;;;;;;;;;;;;16.83;78.87;99111.69;1892707;76;20242;-62
2021/08/04 02:02:23;;;;;;;;;;;;;;;16.86;78.77;99107.73;1873083;76;20236;-60
2021/08/04 02:05:17;;;;;;;;;;;;;;;16.91;78.79;99108.99;1892718;76;20207;-62
2021/08/04 02:08:23;;;;;;;;;;;;;;;16.95;78.83;99115.05;1873370;76;20208;-62
2021/08/04 02:11:43;;;;;;;;;;;;;;;16.98;78.62;99121.08;1872535;76;20458;-62
2021/08/04 02:15:07;;;;;;;;;;;;;;;16.99;78.35;99117.58;1873286;76;20101;-61
2021/08/04 02:18:06;;;;;;;;;;;;;;;16.97;78.18;99111.95;1873580;76;20204;-63
2021/08/04 02:21:02;;;;;;;;;;;;;;;16.92;78.34;99110.73;1892707;76;20101;-62
2021/08/04 02:23:57;;;;;;;;;;;;;;;16.88;78.43;99114.25;1873184;76;20102;-62
2021/08/04 02:26:51;;;;;;;;;;;;;;;16.86;78.46;99110.80;1873412;76;20274;-61
2021/08/04 02:29:47;;;;;;;;;;;;;;;16.85;79.03;99112.98;1873289;76;20101;-63
2021/08/04 02:32:48;;;;;;;;;;;;;;;16.84;79.04;99117.34;1872504;76;20098;-61
2021/08/04 02:35:44;;;;;;;;;;;;;;;16.85;78.54;99124.72;1873160;76;20101;-63
2021/08/04 02:38:37;;;;;;;;;;;;;;;16.87;78.02;99123.82;1892740;76;20208;-61
2021/08/04 02:41:32;;;;;;;;;;;;;;;16.90;78.15;99128.13;1873436;76;20188;-63
2021/08/04 02:44:26;;;;;;;;;;;;;;;16.87;78.71;99126.42;1873470;76;20208;-63
2021/08/04 02:47:39;;;;;;;;;;;;;;;16.82;78.95;99130.83;1880136;75;20243;-64
2021/08/04 02:50:36;;;;;;;;;;;;;;;16.77;79.17;99127.83;1873398;76;20204;-64
2021/08/04 02:53:30;;;;;;;;;;;;;;;16.74;79.55;99123.93;1873506;76;20216;-62
2021/08/04 02:56:25;;;;;;;;;;;;;;;16.72;79.83;99130.48;1873466;76;20242;-62
2021/08/04 02:59:28;;;;;;;;;;;;;;;16.73;80.20;99126.13;1872520;76;20213;-63
2021/08/04 03:12:43;;;;;;;;;;;;;;;16.96;80.44;99139.78;1862291;77;20365;-64
2021/08/04 03:15:19;;;;;;;;;;;;;;;17.05;80.31;99138.38;1881014;76;20098;-63
2021/08/04 03:17:56;;;;;;;;;;;;;;;17.16;80.13;99139.98;1967204;73;20350;-65
2021/08/04 03:20:31;;;;;;;;;;;;;;;17.23;79.81;99141.63;1873524;76;20204;-64
2021/08/04 03:23:11;;;;;;;;;;;;;;;17.27;79.58;99144.16;1872648;76;20097;-64
2021/08/04 03:36:45;;;;;;;;;;;;;;;17.63;78.46;99156.71;1873461;76;20363;-61
2021/08/04 03:39:20;;;;;;;;;;;;;;;17.71;78.01;99160.09;1873407;76;20098;-61
2021/08/04 03:41:55;;;;;;;;;;;;;;;17.76;77.61;99162.20;1873476;76;20358;-61
2021/08/04 03:44:29;;;;;;;;;;;;;;;17.81;77.50;99165.63;1873473;76;20366;-60
2021/08/04 03:47:10;;;;;;;;;;;;;;;17.87;77.34;99160.30;1872719;76;20101;-61
2021/08/04 03:49:45;;;;;;;;;;;;;;;17.92;77.18;99158.48;1873459;76;20098;-64
2021/08/04 03:52:23;;;;;;;;;;;;;;;17.97;77.03;99157.97;1860437;77;20238;-64
2021/08/04 03:55:18;;;;;;;;;;;;;;;18.03;76.89;99173.13;1889440;76;20137;-62
2021/08/04 03:57:53;;;;;;;;;;;;;;;18.04;76.79;99170.50;1873357;76;20097;-61
2021/08/04 04:00:48;;;;;;;;;;;;;;;18.07;76.81;99173.50;1873437;76;20102;-63
2021/08/04 04:03:47;;;;;;;;;;;;;;;18.13;76.83;99176.86;1892739;76;20207;-63
2021/08/04 04:06:22;;;;;;;;;;;;;;;18.22;76.72;99181.94;1873483;76;20102;-63
2021/08/04 04:08:56;;;;;;;;;;;;;;;18.29;76.60;99180.07;1892818;76;20097;-63
2021/08/04 04:11:32;;;;;;;;;;;;;;;18.39;76.25;99182.98;1873472;76;20209;-62
2021/08/04 04:14:22;;;;;;;;;;;;;;;18.50;76.03;99174.94;1892607;76;20251;-62
2021/08/04 04:17:05;;;;;;;;;;;;;;;18.66;75.94;99176.83;1892725;76;20398;-61
2021/08/04 04:19:39;;;;;;;;;;;;;;;18.76;75.19;99186.70;1873489;76;20208;-63
2021/08/04 04:22:20;;;;;;;;;;;;;;;18.89;74.97;99186.03;1872648;76;20216;-64
2021/08/04 04:24:54;;;;;;;;;;;;;;;19.06;74.53;99180.88;1892923;76;20347;-63
2021/08/04 04:27:33;;;;;;;;;;;;;;;19.26;73.71;99188.33;1872825;76;20097;-62
2021/08/04 04:30:10;;;;;;;;;;;;;;;19.39;72.86;99182.39;1873344;76;20212;-63
2021/08/04 04:43:29;;;;;;;;;;;;;;;20.03;70.58;99182.71;1850131;78;20100;-64
2021/08/04 04:46:04;;;;;;;;;;;;;;;20.18;70.49;99188.48;1873333;76;20097;-65
2021/08/04 04:48:58;;;;;;;;;;;;;;;20.37;70.21;99194.98;1873457;76;20208;-64
2021/08/04 04:51:34;;;;;;;;;;;;;;;20.54;69.52;99205.05;1853584;77;20103;-64
2021/08/04 04:54:09;;;;;;;;;;;;;;;20.73;68.85;99205.44;1892755;76;20097;-63
2021/08/04 04:57:04;;;;;;;;;;;;;;;20.98;68.22;99197.77;1873331;76;20102;-62
2021/08/04 04:59:39;;;;;;;;;;;;;;;21.13;67.23;99188.16;1892908;76;20093;-66
2021/08/04 05:02:14;;;;;;;;;;;;;;;21.22;67.00;99190.99;1873234;76;20101;-63
2021/08/04 05:04:48;;;;;;;;;;;;;;;21.33;66.65;99198.09;1867170;76;20116;-64
2021/08/04 05:07:28;;;;;;;;;;;;;;;21.49;66.66;99193.73;1854856;76;20120;-63
2021/08/04 05:10:30;;;;;;;;;;;;;;;21.72;66.45;99199.60;1871665;76;20115;-63
2021/08/04 05:13:06;;;;;;;;;;;;;;;21.96;65.91;99204.10;1855005;76;20377;-63
2021/08/04 05:15:42;;;;;;;;;;;;;;;22.16;65.32;99208.73;1870748;76;20109;-61
2021/08/04 05:18:16;;;;;;;;;;;;;;;22.35;65.15;99212.09;1856548;76;20381;-63
2021/08/04 05:21:10;;;;;;;;;;;;;;;22.47;64.75;99214.32;1859282;76;20118;-64
2021/08/04 05:23:51;;;;;;;;;;;;;;;22.52;64.50;99224.23;1853939;76;20223;-61
2021/08/04 05:26:25;;;;;;;;;;;;;;;22.53;64.30;99220.22;1857991;76;20552;-63
2021/08/04 05:29:00;;;;;;;;;;;;;;;22.44;64.07;99217.91;1858727;76;20115;-62
2021/08/04 05:31:40;;;;;;;;;;;;;;;22.40;63.76;99219.38;1872643;76;20347;-63
2021/08/04 05:34:17;;;;;;;;;;;;;;;22.48;63.21;99218.66;1852644;76;20115;-62
2021/08/04 05:36:51;;;;;;;;;;;;;;;23.12;62.11;99233.55;1872993;76;20279;-62
2021/08/04 05:39:27;;;;;;;;;;;;;;;24.73;59.22;99236.11;1871819;76;20453;-63
2021/08/04 05:42:03;;;;;;;;;;;;;;;26.77;54.69;99235.45;1869321;76;20168;-61
2021/08/04 05:44:56;;;;;;;;;;;;;;;29.26;48.72;99250.77;1853865;76;20227;-62
2021/08/04 05:47:31;;;;;;;;;;;;;;;31.22;43.90;99257.11;1856661;76;20116;-64
2021/08/04 05:50:07;;;;;;;;;;;;;;;32.55;40.57;99261.34;1858780;76;20115;-63
2021/08/04 05:52:42;;;;;;;;;;;;;;;33.89;37.26;99257.18;1862269;76;20117;-62
2021/08/04 05:55:36;;;;;;;;;;;;;;;35.02;34.72;99266.16;1855264;76;20260;-63
2021/08/04 05:58:12;;;;;;;;;;;;;;;35.82;33.34;99271.30;1855849;76;20116;-63
2021/08/04 06:00:53;;;;;;;;;;;;;;;36.75;31.54;99278.13;1856389;76;20227;-63
2021/08/04 06:03:34;;;;;;;;;;;;;;;37.57;30.08;99282.92;1870713;76;20115;-65
2021/08/04 06:06:28;;;;;;;;;;;;;;;37.42;28.94;99290.26;1857527;76;20228;-62
2021/08/04 06:09:04;;;;;;;;;;;;;;;36.61;29.25;99293.34;1858846;76;20127;-62
2021/08/04 06:11:39;;;;;;;;;;;;;;;35.38;29.39;99285.45;1873222;76;20097;-65
2021/08/04 06:14:14;;;;;;;;;;;;;;;34.68;31.85;99274.40;1871409;76;20115;-62
2021/08/04 06:17:07;;;;;;;;;;;;;;;34.49;30.42;99273.70;1858831;76;20226;-64
2021/08/04 06:20:02;;;;;;;;;;;;;;;35.29;29.84;99272.81;1870450;76;20171;-62
2021/08/04 06:22:36;;;;;;;;;;;;;;;36.28;28.32;99285.52;1873190;76;20208;-64
2021/08/04 06:25:37;;;;;;;;;;;;;;;37.61;25.89;99290.23;1863852;76;20162;-63
2021/08/04 06:28:12;;;;;;;;;;;;;;;36.90;26.49;99292.83;1856896;76;20116;-63
2021/08/04 06:30:47;;;;;;;;;;;;;;;36.98;24.36;99299.34;1854848;76;20120;-62
2021/08/04 06:33:23;;;;;;;;;;;;;;;36.44;25.11;99306.47;1857818;76;20119;-65
2021/08/04 06:35:57;;;;;;;;;;;;;;;36.26;25.67;99298.75;1864859;76;20361;-61
2021/08/04 06:38:32;;;;;;;;;;;;;;;36.25;24.52;99303.24;1858193;76;20114;-64
2021/08/04 06:41:08;;;;;;;;;;;;;;;36.86;23.51;99306.70;1867489;76;20296;-65
2021/08/04 06:44:03;;;;;;;;;;;;;;;36.70;22.72;99308.63;1856096;76;20286;-64
2021/08/04 06:46:58;;;;;;;;;;;;;;;36.10;21.92;99300.59;1865369;76;20151;-62
2021/08/04 06:49:51;;;;;;;;;;;;;;;35.87;22.71;99298.60;1872990;76;20208;-64
2021/08/04 06:52:58;;;;;;;;;;;;;;;36.48;22.96;99297.11;1883320;76;20292;-63
2021/08/04 06:55:51;;;;;;;;;;;;;;;36.59;21.63;99306.94;1871997;76;20267;-62
2021/08/04 06:58:26;;;;;;;;;;;;;;;35.97;22.98;99303.51;1892738;76;20220;-62
2021/08/04 07:01:00;;;;;;;;;;;;;;;35.67;22.80;99308.92;1871157;76;20192;-60
2021/08/04 07:03:38;;;;;;;;;;;;;;;35.39;22.63;99304.58;1871844;76;20438;-62
2021/08/04 07:06:37;;;;;;;;;;;;;;;35.00;22.17;99302.98;1862038;76;20121;-62
2021/08/04 07:09:12;;;;;;;;;;;;;;;34.92;22.04;99290.23;1887070;76;20260;-62
2021/08/04 07:22:17;;;;;;;;;;;;;;;35.77;21.87;99295.03;1830348;78;20353;-62
2021/08/04 07:24:51;;;;;;;;;;;;;;;35.95;22.73;99282.67;1873284;76;20204;-63
2021/08/04 07:27:28;;;;;;;;;;;;;;;36.64;20.96;99293.05;1871833;76;20102;-64
2021/08/04 07:30:05;;;;;;;;;;;;;;;36.76;21.13;99299.98;1872992;76;20098;-63
2021/08/04 07:32:39;;;;;;;;;;;;;;;36.58;21.18;99303.88;1873625;76;20208;-63
2021/08/04 07:35:13;;;;;;;;;;;;;;;36.58;21.51;99292.28;1873558;76;20093;-63
2021/08/04 07:37:48;;;;;;;;;;;;;;;36.78;21.86;99298.51;1892823;76;20097;-62
2021/08/04 07:40:42;;;;;;;;;;;;;;;36.82;21.52;99302.13;1892735;76;20358;-63
2021/08/04 07:43:37;;;;;;;;;;;;;;;35.99;21.89;99292.14;1873438;76;20350;-62
2021/08/04 07:46:12;;;;;;;;;;;;;;;35.51;22.54;99290.59;1892781;76;20096;-62
2021/08/04 07:49:05;;;;;;;;;;;;;;;34.60;22.74;99296.11;1892741;76;20212;-64
2021/08/04 07:51:40;;;;;;;;;;;;;;;34.14;23.64;99296.70;1873202;76;20212;-62
2021/08/04 07:54:14;;;;;;;;;;;;;;;34.52;24.66;99284.66;1892781;76;20093;-62
2021/08/04 07:56:49;;;;;;;;;;;;;;;35.62;23.73;99295.42;1873251;76;20216;-64
2021/08/04 07:59:24;;;;;;;;;;;;;;;36.86;22.81;99295.44;1873445;76;20204;-62
2021/08/04 08:01:59;;;;;;;;;;;;;;;37.86;20.60;99303.98;1873463;76;20205;-63
2021/08/04 08:04:53;;;;;;;;;;;;;;;37.09;21.72;99285.23;1873404;76;20204;-63
2021/08/04 08:07:28;;;;;;;;;;;;;;;36.85;22.70;99291.06;1873452;76;20212;-63
2021/08/04 08:10:25;;;;;;;;;;;;;;;37.43;21.94;99283.86;1873348;76;20359;-62
2021/08/04 08:13:01;;;;;;;;;;;;;;;37.53;20.84;99292.78;1892749;76;20374;-62
2021/08/04 08:15:35;;;;;;;;;;;;;;;36.84;21.37;99286.69;1873445;76;20097;-62
2021/08/04 08:18:10;;;;;;;;;;;;;;;36.67;21.95;99281.53;1873445;76;20306;-63
2021/08/04 08:21:04;;;;;;;;;;;;;;;36.29;22.09;99295.27;1873431;76;20098;-63
2021/08/04 08:23:45;;;;;;;;;;;;;;;35.35;22.28;99285.72;1892752;76;20211;-63
2021/08/04 08:26:22;;;;;;;;;;;;;;;34.70;22.95;99280.45;1873452;76;20101;-63
2021/08/04 08:28:56;;;;;;;;;;;;;;;34.43;23.25;99274.23;1892851;76;20199;-63
2021/08/04 08:31:56;;;;;;;;;;;;;;;35.64;23.13;99275.97;1892679;76;20211;-64
2021/08/04 08:34:32;;;;;;;;;;;;;;;36.77;20.98;99279.34;1873192;76;20351;-63
2021/08/04 08:37:26;;;;;;;;;;;;;;;36.90;21.82;99272.66;1892665;76;20215;-64
2021/08/04 08:40:02;;;;;;;;;;;;;;;37.11;21.54;99264.92;1892814;76;20097;-63
2021/08/04 08:42:39;;;;;;;;;;;;;;;37.10;21.28;99275.34;1873469;76;20212;-63
2021/08/04 08:45:32;;;;;;;;;;;;;;;37.54;21.18;99264.88;1873368;76;20097;-63
2021/08/04 08:48:07;;;;;;;;;;;;;;;37.62;20.01;99274.91;1873225;76;20359;-64
2021/08/04 08:50:50;;;;;;;;;;;;;;;36.57;20.32;99278.50;1892834;76;20117;-64
2021/08/04 08:53:44;;;;;;;;;;;;;;;35.35;21.30;99263.75;1892570;76;20235;-64
2021/08/04 08:56:19;;;;;;;;;;;;;;;34.29;22.72;99253.92;1892703;76;20354;-63
2021/08/04 08:59:16;;;;;;;;;;;;;;;33.48;24.10;99251.08;1873237;76;20352;-63
2021/08/04 09:02:10;;;;;;;;;;;;;;;33.25;24.84;99240.86;1873351;76;20216;-65
2021/08/04 09:05:07;;;;;;;;;;;;;;;33.70;24.81;99242.23;1892663;76;20100;-63
2021/08/04 09:07:43;;;;;;;;;;;;;;;34.29;24.03;99243.20;1853995;76;20227;-64
2021/08/04 09:10:59;;;;;;;;;;;;;;;34.86;22.54;99249.66;1858791;75;20142;-63
2021/08/04 09:13:40;;;;;;;;;;;;;;;33.69;23.59;99240.54;1856097;76;20226;-63
2021/08/04 09:16:22;;;;;;;;;;;;;;;32.68;24.37;99240.38;1864667;76;20273;-62
2021/08/04 09:19:38;;;;;;;;;;;;;;;32.06;25.55;99235.59;1872936;75;20137;-65
2021/08/04 09:22:16;;;;;;;;;;;;;;;31.51;26.63;99230.22;1854817;76;20238;-63
2021/08/04 09:25:10;;;;;;;;;;;;;;;31.63;26.21;99233.83;1892680;76;20101;-62
2021/08/04 09:27:48;;;;;;;;;;;;;;;31.87;26.19;99225.36;1892817;76;20092;-62
2021/08/04 09:30:42;;;;;;;;;;;;;;;31.98;26.05;99229.94;1876344;76;20117;-63
2021/08/04 09:33:25;;;;;;;;;;;;;;;31.92;26.56;99229.89;1858960;76;20229;-62
2021/08/04 09:35:57;;;;;;;;;;;;;;;31.11;27.91;99215.17;1855377;76;20370;-63
2021/08/04 09:38:32;;;;;;;;;;;;;;;30.53;28.56;99218.28;1873413;76;20110;-63
2021/08/04 09:41:16;;;;;;;;;;;;;;;29.92;28.47;99219.16;1873337;76;20093;-64
2021/08/04 09:44:10;;;;;;;;;;;;;;;29.08;29.38;99223.97;1873352;76;20204;-62
2021/08/04 09:46:45;;;;;;;;;;;;;;;28.54;29.74;99207.24;1873391;76;20204;-63
2021/08/04 09:49:20;;;;;;;;;;;;;;;28.33;30.07;99204.02;1863446;76;20358;-62
2021/08/04 09:52:08;;;;;;;;;;;;;;;28.39;30.25;99201.48;1850632;76;20115;-63
2021/08/04 09:55:16;;;;;;;;;;;;;;;28.31;31.26;99197.47;1873358;76;20204;-65
2021/08/04 09:58:05;;;;;;;;;;;;;;;28.24;32.10;99193.48;1892721;76;20100;-69
2021/08/04 10:00:45;;;;;;;;;;;;;;;28.23;32.69;99187.77;1967121;73;20096;-64
2021/08/04 10:03:23;;;;;;;;;;;;;;;28.21;32.84;99196.29;1873318;76;20102;-68
2021/08/04 10:05:58;;;;;;;;;;;;;;;28.28;33.03;99186.19;1892888;76;20203;-66
2021/08/04 10:08:37;;;;;;;;;;;;;;;28.41;32.78;99190.30;1872843;76;20106;-65
2021/08/04 10:11:12;;;;;;;;;;;;;;;28.55;32.49;99190.38;1872725;76;20161;-64
2021/08/04 10:14:05;;;;;;;;;;;;;;;28.71;32.53;99187.18;1867560;76;20275;-65
2021/08/04 10:16:41;;;;;;;;;;;;;;;28.83;32.14;99191.39;1823686;76;20306;-65
2021/08/04 10:19:35;;;;;;;;;;;;;;;28.97;32.03;99186.06;1858409;76;20275;-65
2021/08/04 10:22:11;;;;;;;;;;;;;;;28.98;32.08;99194.44;1873198;76;20101;-64
2021/08/04 10:24:48;;;;;;;;;;;;;;;29.00;31.81;99190.73;1967000;73;20092;-63
2021/08/04 10:27:48;;;;;;;;;;;;;;;28.97;32.49;99188.72;1853788;76;20115;-63
2021/08/04 10:30:23;;;;;;;;;;;;;;;28.92;31.42;99186.83;1851633;76;20226;-65
2021/08/04 10:33:05;;;;;;;;;;;;;;;28.85;31.54;99185.48;1873153;76;20355;-63
2021/08/04 10:35:46;;;;;;;;;;;;;;;28.92;32.39;99186.34;1887341;76;20113;-65
2021/08/04 10:38:23;;;;;;;;;;;;;;;29.37;32.49;99184.48;1873313;76;20351;-64
2021/08/04 10:41:27;;;;;;;;;;;;;;;29.71;32.06;99178.84;1862332;76;20188;-64
2021/08/04 10:44:22;;;;;;;;;;;;;;;29.88;31.39;99186.59;1865127;76;20293;-64
2021/08/04 10:46:59;;;;;;;;;;;;;;;29.96;31.47;99185.61;1867911;76;20145;-64
2021/08/04 10:50:10;;;;;;;;;;;;;;;29.69;30.93;99187.40;1870657;76;20115;-64
2021/08/04 10:53:06;;;;;;;;;;;;;;;29.59;31.24;99183.10;1855856;76;20119;-63
2021/08/04 10:56:12;;;;;;;;;;;;;;;29.72;30.40;99179.24;1876173;76;20141;-64
2021/08/04 10:58:51;;;;;;;;;;;;;;;29.99;29.70;99180.08;1858917;76;20478;-65
2021/08/04 11:01:30;;;;;;;;;;;;;;;30.11;30.64;99182.91;1856414;76;20117;-64
2021/08/04 11:04:09;;;;;;;;;;;;;;;29.74;30.44;99175.98;1858765;76;20115;-64
2021/08/04 11:07:20;;;;;;;;;;;;;;;29.36;31.10;99175.26;1872166;76;20105;-65
2021/08/04 11:10:07;;;;;;;;;;;;;;;29.27;30.41;99174.05;1873101;76;20351;-65
2021/08/04 11:13:06;;;;;;;;;;;;;;;29.25;31.02;99167.97;1892649;76;20097;-63
2021/08/04 11:16:23;;;;;;;;;;;;;;;29.16;30.93;99174.73;1873267;76;20216;-65
2021/08/04 11:19:09;;;;;;;;;;;;;;;29.08;31.28;99165.05;1873265;76;20208;-63
2021/08/04 11:22:20;;;;;;;;;;;;;;;29.03;31.76;99168.89;1875165;76;20121;-63
2021/08/04 11:25:15;;;;;;;;;;;;;;;28.86;32.18;99165.95;1873343;76;20204;-63
2021/08/04 11:28:06;;;;;;;;;;;;;;;28.40;33.17;99159.41;1967081;73;20092;-64
2021/08/04 11:30:55;;;;;;;;;;;;;;;27.89;33.56;99167.65;1872626;76;20462;-64
2021/08/04 11:34:27;;;;;;;;;;;;;;;27.59;34.12;99171.52;1895402;76;20231;-64
2021/08/04 11:37:02;;;;;;;;;;;;;;;27.34;34.50;99167.56;1872543;76;20560;-64
2021/08/04 11:39:56;;;;;;;;;;;;;;;27.18;34.67;99160.08;1873086;76;20410;-64
2021/08/04 11:42:31;;;;;;;;;;;;;;;27.20;35.02;99163.03;1873210;76;20208;-65
2021/08/04 11:45:25;;;;;;;;;;;;;;;27.38;35.33;99156.34;1873314;76;20208;-63
2021/08/04 11:47:59;;;;;;;;;;;;;;;27.54;35.13;99161.64;1873435;76;20209;-65
2021/08/04 11:50:46;;;;;;;;;;;;;;;27.69;34.79;99156.80;1872478;76;20098;-64
2021/08/04 11:53:43;;;;;;;;;;;;;;;27.87;34.46;99142.52;1873378;76;20212;-65
2021/08/04 11:56:47;;;;;;;;;;;;;;;28.06;34.31;99148.97;1892582;76;20211;-65
2021/08/04 11:59:25;;;;;;;;;;;;;;;28.21;34.34;99144.53;1873184;76;20209;-64
2021/08/04 12:02:21;;;;;;;;;;;;;;;28.43;34.17;99136.17;1872991;76;20101;-63
2021/08/04 12:04:57;;;;;;;;;;;;;;;28.66;33.93;99137.47;1892503;76;20461;-63
2021/08/04 12:07:35;;;;;;;;;;;;;;;28.89;33.67;99129.90;1845788;76;20227;-63
2021/08/04 12:10:32;;;;;;;;;;;;;;;29.23;33.24;99134.45;1845961;76;20119;-64
2021/08/04 12:13:07;;;;;;;;;;;;;;;29.52;33.08;99124.16;1892488;76;20097;-65
2021/08/04 12:17:02;;;;;;;;;;;;;;;29.76;32.98;99120.88;1864187;76;20282;-64
2021/08/04 12:19:41;;;;;;;;;;;;;;;29.88;32.19;99121.41;1868640;76;20426;-63
2021/08/04 12:22:35;;;;;;;;;;;;;;;29.56;32.85;99108.36;1872758;76;20109;-65
2021/08/04 12:25:32;;;;;;;;;;;;;;;29.56;32.78;99105.70;1869776;76;20212;-63
2021/08/04 12:28:08;;;;;;;;;;;;;;;29.67;32.73;99087.77;1873325;76;20470;-63
2021/08/04 12:30:44;;;;;;;;;;;;;;;29.37;32.89;99091.91;1861298;76;20234;-64
2021/08/04 12:33:56;;;;;;;;;;;;;;;28.85;33.61;99097.81;1873202;76;20322;-63
2021/08/04 12:36:54;;;;;;;;;;;;;;;28.39;34.14;99093.48;1859271;76;20519;-65
2021/08/04 12:39:30;;;;;;;;;;;;;;;28.29;34.42;99087.91;1853484;76;20119;-64
2021/08/04 12:42:44;;;;;;;;;;;;;;;28.20;34.72;99086.27;1870695;75;20223;-64
2021/08/04 12:45:47;;;;;;;;;;;;;;;28.03;34.96;99084.13;1853695;76;20287;-64
2021/08/04 12:48:44;;;;;;;;;;;;;;;28.10;34.97;99080.64;1872082;76;20224;-63
2021/08/04 12:51:25;;;;;;;;;;;;;;;28.00;35.11;99087.44;1859144;76;20120;-65
2021/08/04 12:54:38;;;;;;;;;;;;;;;27.71;35.92;99085.98;1843874;75;20149;-64
2021/08/04 12:57:27;;;;;;;;;;;;;;;27.53;36.60;99085.23;1869556;76;20102;-64
2021/08/04 13:00:28;;;;;;;;;;;;;;;27.24;36.91;99082.88;1883229;76;20220;-65
2021/08/04 13:03:32;;;;;;;;;;;;;;;27.27;36.55;99088.00;1857665;76;20293;-64
2021/08/04 13:06:50;;;;;;;;;;;;;;;27.23;36.83;99086.01;1863928;76;20226;-62
2021/08/04 13:09:41;;;;;;;;;;;;;;;27.32;36.26;99089.93;1949464;73;20097;-65
2021/08/04 13:12:35;;;;;;;;;;;;;;;27.29;36.71;99082.16;1873186;76;20101;-63
2021/08/04 13:15:41;;;;;;;;;;;;;;;27.19;36.71;99072.53;1873269;76;20208;-63
2021/08/04 13:18:36;;;;;;;;;;;;;;;27.30;36.78;99075.05;1892636;76;20208;-65
2021/08/04 13:21:12;;;;;;;;;;;;;;;27.45;36.42;99067.56;1892607;76;20104;-63
2021/08/04 13:23:49;;;;;;;;;;;;;;;27.44;36.05;99073.34;1892485;76;20100;-63
2021/08/04 13:26:33;;;;;;;;;;;;;;;27.30;36.36;99075.94;1892653;76;20350;-65
2021/08/04 13:29:28;;;;;;;;;;;;;;;27.15;36.02;99075.43;1873180;76;20462;-64
2021/08/04 13:32:26;;;;;;;;;;;;;;;26.91;36.31;99082.44;1892552;76;20215;-63
2021/08/04 13:35:03;;;;;;;;;;;;;;;26.70;36.80;99074.34;1949158;73;20272;-64
2021/08/04 13:37:38;;;;;;;;;;;;;;;26.60;37.25;99077.46;1859467;76;20230;-65
2021/08/04 13:40:21;;;;;;;;;;;;;;;26.52;37.76;99065.11;1865866;76;20113;-63
2021/08/04 13:42:57;;;;;;;;;;;;;;;26.61;37.77;99071.69;1855512;76;20115;-62
2021/08/04 13:45:39;;;;;;;;;;;;;;;26.63;37.84;99070.67;1874039;76;20431;-61
2021/08/04 13:48:14;;;;;;;;;;;;;;;26.62;37.94;99068.98;1855181;76;20116;-63
2021/08/04 13:50:51;;;;;;;;;;;;;;;26.58;37.93;99065.24;1855180;76;20120;-61
2021/08/04 13:53:25;;;;;;;;;;;;;;;26.54;38.05;99060.59;1869025;76;20118;-63
2021/08/04 13:55:59;;;;;;;;;;;;;;;26.56;37.88;99063.14;1854584;76;20116;-63
2021/08/04 13:58:33;;;;;;;;;;;;;;;26.60;37.63;99062.05;1856128;76;20120;-62
2021/08/04 14:01:08;;;;;;;;;;;;;;;26.53;38.06;99051.40;1861160;76;20219;-62
2021/08/04 14:03:47;;;;;;;;;;;;;;;26.58;37.73;99056.83;1892583;76;20212;-61
2021/08/04 14:16:44;;;;;;;;;;;;;;;26.63;38.04;99044.20;1810556;77;20226;-60
2021/08/04 14:19:26;;;;;;;;;;;;;;;26.56;38.36;99040.64;1866946;76;20152;-60
2021/08/04 14:22:26;;;;;;;;;;;;;;;26.58;38.71;99044.92;1863620;76;20228;-60
2021/08/04 14:25:02;;;;;;;;;;;;;;;26.53;39.07;99039.02;1856238;76;20527;-60
2021/08/04 14:27:57;;;;;;;;;;;;;;;26.43;39.49;99039.08;1851829;76;20367;-61
2021/08/04 14:30:50;;;;;;;;;;;;;;;26.35;39.86;99034.67;1868210;76;20119;-60
2021/08/04 14:33:25;;;;;;;;;;;;;;;26.29;39.83;99027.06;1869084;76;20114;-62
2021/08/04 14:36:00;;;;;;;;;;;;;;;26.23;39.44;99030.02;1864579;76;20115;-61
2021/08/04 14:39:01;;;;;;;;;;;;;;;26.11;40.08;99031.53;1859464;76;20123;-62
2021/08/04 14:41:36;;;;;;;;;;;;;;;26.06;40.47;99022.50;1865600;76;20220;-62
2021/08/04 14:44:10;;;;;;;;;;;;;;;26.16;40.28;99036.11;1866790;76;20234;-62
2021/08/04 14:46:46;;;;;;;;;;;;;;;26.19;40.25;99031.50;1854836;76;20119;-59
2021/08/04 14:49:28;;;;;;;;;;;;;;;26.18;40.41;99019.22;1867335;76;20116;-64
2021/08/04 14:52:12;;;;;;;;;;;;;;;26.17;42.44;99025.44;1866557;76;20231;-58
2021/08/04 14:54:47;;;;;;;;;;;;;;;26.00;44.69;99022.80;1854868;76;20113;-60
2021/08/04 14:57:41;;;;;;;;;;;;;;;25.68;47.70;99021.77;1859349;76;20475;-59
2021/08/04 15:00:16;;;;;;;;;;;;;;;25.20;49.51;99050.50;1854584;76;20468;-60
2021/08/04 15:02:51;;;;;;;;;;;;;;;24.99;51.59;99050.18;1854950;76;20116;-59
2021/08/04 15:05:50;;;;;;;;;;;;;;;24.61;54.62;99064.66;1872890;76;20233;-59
2021/08/04 15:08:24;;;;;;;;;;;;;;;24.18;56.21;99079.70;1848888;76;20482;-61
2021/08/04 15:10:59;;;;;;;;;;;;;;;23.48;58.56;99059.25;1855594;76;20116;-59
2021/08/04 15:13:53;;;;;;;;;;;;;;;22.69;63.14;99082.88;1866181;76;20170;-60
2021/08/04 15:16:28;;;;;;;;;;;;;;;22.13;65.56;99099.72;1857924;76;20322;-60
2021/08/04 15:19:04;;;;;;;;;;;;;;;21.60;67.27;99091.83;1869291;76;20166;-59
2021/08/04 15:21:58;;;;;;;;;;;;;;;21.12;68.60;99081.94;1873351;76;20311;-60
2021/08/04 15:24:41;;;;;;;;;;;;;;;20.72;68.09;99090.96;1871792;76;20479;-60
2021/08/04 15:27:16;;;;;;;;;;;;;;;20.50;68.67;99077.55;1852327;76;20116;-59
2021/08/04 15:30:11;;;;;;;;;;;;;;;20.30;70.29;99081.59;1873320;76;20359;-60
2021/08/04 15:32:53;;;;;;;;;;;;;;;20.20;68.49;99073.98;1892716;76;20117;-59
2021/08/04 15:35:29;;;;;;;;;;;;;;;20.19;67.66;99065.73;1873309;76;20209;-60
2021/08/04 15:38:05;;;;;;;;;;;;;;;20.23;67.20;99056.44;1873182;76;20097;-60
2021/08/04 15:40:40;;;;;;;;;;;;;;;20.30;66.40;99036.15;1892710;76;20200;-60
2021/08/04 15:43:15;;;;;;;;;;;;;;;20.35;66.62;99031.64;1892696;76;20093;-60
2021/08/04 15:45:56;;;;;;;;;;;;;;;20.37;66.00;99023.28;1872407;76;20097;-58
2021/08/04 15:48:55;;;;;;;;;;;;;;;20.43;66.58;99013.95;1875938;76;20093;-60
2021/08/04 15:51:41;;;;;;;;;;;;;;;20.47;66.70;99012.09;1892760;76;20204;-59
2021/08/04 15:54:13;;;;;;;;;;;;;;;20.49;69.45;99013.77;1866469;76;20231;-60
2021/08/04 15:56:48;;;;;;;;;;;;;;;20.48;68.75;99009.44;1857371;76;20119;-59
2021/08/04 15:59:39;;;;;;;;;;;;;;;20.54;67.51;99008.41;1870037;76;20403;-59
2021/08/04 16:03:02;;;;;;;;;;;;;;;20.62;67.09;99006.44;1861289;76;20154;-59